Time;durP1;ratioP1;P1;durP2;ratioP2;P2;SDS_P1;SDS_P2;PMS_P1;PMS_P2;Temp;Humidity;BMP_temperature;BMP_pressure;BME280_temperature;BME280_humidity;BME280_pressure;Samples;Min_cycle;Max_cycle;Signal;HPM_P1;HPM_P2
2021/10/27 00:01:21;;;;;;;66.88;35.90;;;;;;;4.18;86.27;101442.22;5029735;28;20067;-68
2021/10/27 00:03:47;;;;;;;63.75;33.15;;;;;;;4.19;85.89;101441.28;5029798;28;20017;-68
2021/10/27 00:06:12;;;;;;;66.75;35.25;;;;;;;4.18;85.99;101440.44;5029357;28;20022;-69
2021/10/27 00:08:38;;;;;;;66.03;33.60;;;;;;;4.17;85.75;101433.41;5029233;28;20040;-68
2021/10/27 00:11:03;;;;;;;67.60;33.38;;;;;;;4.17;85.57;101437.84;5021966;28;20036;-68
2021/10/27 00:13:29;;;;;;;66.40;33.33;;;;;;;4.14;85.13;101435.31;5020613;28;20419;-68
2021/10/27 00:15:54;;;;;;;57.15;31.15;;;;;;;4.16;85.50;101438.78;5029425;28;20129;-68
2021/10/27 00:18:20;;;;;;;62.92;33.47;;;;;;;4.08;85.89;101436.47;5025537;28;20038;-68
2021/10/27 00:20:45;;;;;;;56.88;30.58;;;;;;;4.10;86.34;101445.19;5026715;28;20069;-68
2021/10/27 00:23:10;;;;;;;66.05;33.55;;;;;;;4.08;86.50;101443.56;5018443;28;20369;-69
2021/10/27 00:25:36;;;;;;;57.40;29.95;;;;;;;4.10;86.87;101447.00;5028819;28;20041;-68
2021/10/27 00:28:02;;;;;;;56.80;31.17;;;;;;;4.09;86.65;101439.94;5025859;28;20026;-69
2021/10/27 00:30:27;;;;;;;57.65;31.20;;;;;;;4.08;85.96;101443.56;5028654;28;20108;-68
2021/10/27 00:32:53;;;;;;;59.67;32.80;;;;;;;4.07;85.64;101447.97;5028672;28;20391;-69
2021/10/27 00:35:18;;;;;;;54.85;29.85;;;;;;;4.01;85.68;101447.41;5014637;28;20021;-69
2021/10/27 00:37:44;;;;;;;54.15;30.80;;;;;;;3.99;85.93;101451.91;5028559;28;20033;-68
2021/10/27 00:40:10;;;;;;;57.30;30.48;;;;;;;3.96;85.81;101444.94;5018295;28;20083;-69
2021/10/27 00:42:36;;;;;;;58.72;31.40;;;;;;;3.92;85.40;101443.34;5027277;28;20021;-68
2021/10/27 00:45:02;;;;;;;50.92;28.77;;;;;;;3.93;84.93;101452.16;5020859;28;20427;-68
2021/10/27 00:47:27;;;;;;;50.95;29.02;;;;;;;3.83;84.54;101432.25;5028446;28;20026;-69
2021/10/27 00:49:53;;;;;;;54.88;30.30;;;;;;;3.89;85.21;101451.44;5028242;28;20434;-68
2021/10/27 00:52:19;;;;;;;56.47;28.92;;;;;;;3.79;84.85;101433.31;5020746;28;20029;-69
2021/10/27 00:54:47;;;;;;;51.45;28.77;;;;;;;3.85;84.45;101449.84;5027137;28;20034;-68
2021/10/27 00:57:15;;;;;;;55.22;30.17;;;;;;;3.77;84.85;101445.81;5028407;28;20026;-68
2021/10/27 00:59:43;;;;;;;59.00;28.90;;;;;;;3.74;85.30;101443.28;5021246;28;20034;-68
2021/10/27 01:02:10;;;;;;;62.67;29.20;;;;;;;3.76;85.33;101450.22;5017805;28;20510;-68
2021/10/27 01:04:36;;;;;;;53.92;29.55;;;;;;;3.70;84.96;101446.97;5026900;28;20031;-69
2021/10/27 01:07:03;;;;;;;52.40;30.38;;;;;;;3.70;84.53;101447.84;5028030;28;20053;-69
2021/10/27 01:09:29;;;;;;;54.72;30.15;;;;;;;3.68;83.87;101446.19;5028125;28;20028;-68
2021/10/27 01:11:55;;;;;;;51.45;29.30;;;;;;;3.62;84.03;101435.81;5028392;28;20041;-69
2021/10/27 01:14:20;;;;;;;47.10;27.60;;;;;;;3.61;83.81;101442.06;5028218;28;20112;-66
2021/10/27 01:16:47;;;;;;;43.35;27.17;;;;;;;3.59;83.43;101443.91;5027960;28;20036;-68
2021/10/27 01:19:14;;;;;;;51.72;27.48;;;;;;;3.56;83.45;101439.59;5027594;28;20407;-67
2021/10/27 01:21:41;;;;;;;50.75;29.40;;;;;;;3.53;82.67;101452.97;5027994;28;20165;-67
2021/10/27 01:24:07;;;;;;;50.08;27.02;;;;;;;3.46;82.26;101445.34;5027953;28;20471;-68
2021/10/27 01:26:34;;;;;;;50.47;27.48;;;;;;;3.42;82.20;101438.44;5009244;28;20511;-67
2021/10/27 01:28:59;;;;;;;51.28;29.02;;;;;;;3.39;82.27;101446.50;5025445;28;20025;-68
2021/10/27 01:31:25;;;;;;;52.40;28.35;;;;;;;3.33;83.20;101441.44;5022612;28;20035;-68
2021/10/27 01:33:52;;;;;;;57.22;28.35;;;;;;;3.26;83.67;101446.13;5027083;28;20093;-69
2021/10/27 01:36:19;;;;;;;52.17;28.35;;;;;;;3.21;83.83;101448.09;5023829;28;20088;-69
2021/10/27 01:38:46;;;;;;;50.95;28.27;;;;;;;3.17;84.36;101448.28;5027359;28;20021;-69
2021/10/27 01:41:12;;;;;;;54.83;28.88;;;;;;;3.05;84.89;101427.56;5031416;28;20025;-68
2021/10/27 01:43:55;;;;;;;47.80;27.85;;;;;;;3.12;85.20;101450.25;5019028;28;20030;-68
2021/10/27 01:46:32;;;;;;;50.97;27.60;;;;;;;3.06;85.21;101439.91;5021760;28;20037;-69
2021/10/27 01:48:59;;;;;;;48.08;26.73;;;;;;;3.04;85.43;101441.75;5020515;28;20118;-68
2021/10/27 01:51:26;;;;;;;49.17;27.00;;;;;;;2.99;86.15;101439.28;5020383;28;20129;-69
2021/10/27 01:53:52;;;;;;;52.25;26.67;;;;;;;2.92;86.63;101436.91;5018359;28;20105;-69
2021/10/27 01:56:18;;;;;;;50.10;27.85;;;;;;;2.98;86.56;101453.47;5019139;28;20026;-68
2021/10/27 01:58:44;;;;;;;51.13;26.73;;;;;;;2.95;86.40;101455.34;5020962;28;20087;-69
2021/10/27 02:01:09;;;;;;;49.97;27.25;;;;;;;2.93;85.60;101454.56;5021909;28;20017;-69
2021/10/27 02:03:35;;;;;;;58.05;28.67;;;;;;;2.92;85.68;101466.06;5021148;28;20515;-69
2021/10/27 02:06:00;;;;;;;65.82;29.00;;;;;;;2.86;86.08;101461.88;5014718;28;20507;-69
2021/10/27 02:08:26;;;;;;;55.55;28.83;;;;;;;2.79;85.53;101452.44;5017947;28;20029;-68
2021/10/27 02:10:51;;;;;;;54.45;29.25;;;;;;;2.80;85.59;101459.44;5020785;28;20061;-68
2021/10/27 02:13:17;;;;;;;50.25;25.55;;;;;;;2.76;85.61;101451.66;5019407;28;20656;-70
2021/10/27 02:15:42;;;;;;;50.90;27.58;;;;;;;2.73;85.68;101446.47;5022951;28;20589;-68
2021/10/27 02:18:08;;;;;;;40.35;25.10;;;;;;;2.76;85.55;101449.00;5022427;28;20033;-69
2021/10/27 02:20:33;;;;;;;46.00;25.30;;;;;;;2.74;84.97;101441.13;5023260;28;20084;-69
2021/10/27 02:22:59;;;;;;;48.50;26.90;;;;;;;2.79;84.56;101446.25;5019869;28;20022;-69
2021/10/27 02:25:24;;;;;;;47.22;26.70;;;;;;;2.79;84.87;101447.13;5021469;28;20029;-68
2021/10/27 02:27:50;;;;;;;43.25;24.27;;;;;;;2.82;84.75;101454.09;5022951;28;20049;-69
2021/10/27 02:30:15;;;;;;;42.72;25.52;;;;;;;2.77;85.14;101443.66;5018177;28;20021;-69
2021/10/27 02:32:41;;;;;;;42.38;25.65;;;;;;;2.68;85.74;101433.44;5018218;28;20035;-69
2021/10/27 02:35:07;;;;;;;46.95;26.63;;;;;;;2.66;86.47;101429.09;5019230;28;20479;-68
2021/10/27 02:37:32;;;;;;;42.10;25.10;;;;;;;2.76;86.59;101444.59;5019520;28;20121;-68
2021/10/27 02:39:58;;;;;;;46.08;24.98;;;;;;;2.77;86.60;101442.81;5016668;28;20017;-69
2021/10/27 02:42:23;;;;;;;48.28;25.10;;;;;;;2.80;85.50;101448.00;5019654;28;20072;-69
2021/10/27 02:44:49;;;;;;;45.42;23.98;;;;;;;2.81;85.42;101444.44;5013576;28;20029;-69
2021/10/27 02:47:14;;;;;;;50.88;26.35;;;;;;;2.73;84.66;101431.47;5026997;28;20029;-69
2021/10/27 02:49:40;;;;;;;40.95;24.63;;;;;;;2.75;83.95;101437.56;5025943;28;20030;-69
2021/10/27 02:52:05;;;;;;;44.40;24.33;;;;;;;2.71;83.55;101445.69;5023133;28;20108;-70
2021/10/27 02:54:31;;;;;;;40.97;24.73;;;;;;;2.61;84.37;101437.22;5025129;28;20541;-69
2021/10/27 02:56:56;;;;;;;39.25;23.48;;;;;;;2.67;85.23;101459.97;5027682;28;20038;-69
2021/10/27 02:59:22;;;;;;;40.28;23.48;;;;;;;2.68;86.34;101474.94;5029393;28;20029;-69
2021/10/27 03:01:47;;;;;;;46.30;25.17;;;;;;;2.62;85.65;101464.56;5030277;28;20030;-68
2021/10/27 03:04:13;;;;;;;41.67;25.05;;;;;;;2.63;84.58;101461.00;5024917;28;20387;-69
2021/10/27 03:06:39;;;;;;;42.08;23.75;;;;;;;2.56;84.04;101459.50;5030216;28;20025;-69
2021/10/27 03:09:05;;;;;;;40.85;24.10;;;;;;;2.65;82.93;101469.75;5030005;28;20032;-69
2021/10/27 03:11:30;;;;;;;45.65;25.13;;;;;;;2.60;82.65;101479.63;5024859;28;20353;-69
2021/10/27 03:13:56;;;;;;;38.03;22.25;;;;;;;2.53;82.56;101472.84;5027743;28;20068;-69
2021/10/27 03:16:22;;;;;;;41.15;24.83;;;;;;;2.53;82.78;101488.72;5021346;28;20026;-68
2021/10/27 03:18:47;;;;;;;53.10;26.58;;;;;;;2.48;84.62;101493.34;5025691;28;20106;-68
2021/10/27 03:21:13;;;;;;;41.03;24.38;;;;;;;2.43;84.79;101491.72;5017206;28;20036;-67
2021/10/27 03:23:39;;;;;;;45.88;24.88;;;;;;;2.42;85.55;101493.56;5027376;28;20029;-68
2021/10/27 03:26:04;;;;;;;48.83;25.80;;;;;;;2.39;85.11;101486.59;5029832;28;20029;-69
2021/10/27 03:28:30;;;;;;;42.88;26.02;;;;;;;2.38;84.63;101489.31;5029539;28;20076;-69
2021/10/27 03:30:56;;;;;;;44.78;24.15;;;;;;;2.32;83.81;101493.88;5025835;28;20025;-69
2021/10/27 03:33:22;;;;;;;39.08;23.20;;;;;;;2.36;83.20;101494.66;5027929;28;20410;-69
2021/10/27 03:35:48;;;;;;;39.15;22.83;;;;;;;2.28;82.71;101491.41;5022746;28;20034;-69
2021/10/27 03:38:15;;;;;;;38.10;23.70;;;;;;;2.18;83.00;101488.22;5029157;28;20033;-68
2021/10/27 03:40:41;;;;;;;38.13;22.85;;;;;;;2.14;83.16;101494.56;5029349;28;20447;-69
2021/10/27 03:43:07;;;;;;;42.22;23.67;;;;;;;2.20;83.47;101510.19;5026801;28;20056;-69
2021/10/27 03:45:32;;;;;;;44.83;24.40;;;;;;;2.16;85.29;101503.28;5027377;28;20084;-68
2021/10/27 03:47:58;;;;;;;43.83;25.75;;;;;;;2.08;86.43;101483.28;5024742;28;20033;-69
2021/10/27 03:50:24;;;;;;;44.63;24.52;;;;;;;2.14;87.10;101502.50;5020894;28;20253;-69
2021/10/27 03:52:50;;;;;;;47.42;25.35;;;;;;;2.07;87.16;101498.28;5010547;28;20044;-69
2021/10/27 03:55:15;;;;;;;42.75;25.27;;;;;;;2.11;86.12;101515.81;5016553;28;20037;-68
2021/10/27 03:57:40;;;;;;;41.80;23.77;;;;;;;2.09;86.05;101507.06;5019556;28;20045;-70
2021/10/27 04:00:08;;;;;;;38.20;23.77;;;;;;;2.04;85.60;101492.25;5019084;28;20360;-69
2021/10/27 04:02:38;;;;;;;51.78;24.85;;;;;;;2.09;86.01;101506.19;5026371;28;20132;-71
2021/10/27 04:05:04;;;;;;;44.47;26.20;;;;;;;2.07;86.43;101516.81;5029132;28;20030;-68
2021/10/27 04:07:30;;;;;;;49.40;26.08;;;;;;;2.02;86.57;101505.53;5029011;28;20033;-65
2021/10/27 04:09:55;;;;;;;46.08;26.50;;;;;;;2.07;85.58;101510.69;5029294;28;20029;-65
2021/10/27 04:12:21;;;;;;;43.35;24.88;;;;;;;2.05;84.84;101517.78;5028670;28;20353;-66
2021/10/27 04:14:46;;;;;;;43.00;25.85;;;;;;;2.01;84.20;101511.75;5023559;28;20095;-65
2021/10/27 04:17:12;;;;;;;47.58;24.98;;;;;;;1.97;84.65;101504.81;5028696;28;20029;-66
2021/10/27 04:19:37;;;;;;;40.40;24.40;;;;;;;2.01;84.43;101503.81;5023048;28;20377;-66
2021/10/27 04:22:03;;;;;;;39.95;24.20;;;;;;;1.97;83.82;101499.53;5026510;28;20596;-64
2021/10/27 04:24:29;;;;;;;39.95;24.25;;;;;;;1.94;85.05;101486.41;5028941;28;20549;-65
2021/10/27 04:26:55;;;;;;;41.83;24.40;;;;;;;1.95;85.46;101488.16;5027612;28;20025;-66
2021/10/27 04:29:20;;;;;;;40.58;23.92;;;;;;;1.92;85.40;101477.69;5018341;28;20116;-66
2021/10/27 04:31:46;;;;;;;43.30;24.60;;;;;;;2.01;85.71;101490.59;5028834;28;20021;-65
2021/10/27 04:34:11;;;;;;;42.03;23.92;;;;;;;2.00;86.02;101490.66;5026664;28;20266;-65
2021/10/27 04:36:37;;;;;;;38.33;24.27;;;;;;;2.02;85.59;101494.09;5023952;28;20531;-65
2021/10/27 04:39:03;;;;;;;46.10;24.38;;;;;;;2.03;85.74;101495.81;5025579;28;20510;-66
2021/10/27 04:41:29;;;;;;;39.50;24.70;;;;;;;2.02;85.88;101491.44;5027801;28;20360;-66
2021/10/27 04:43:54;;;;;;;46.92;23.33;;;;;;;1.95;86.10;101479.34;5025587;28;20086;-66
2021/10/27 04:46:19;;;;;;;47.63;24.45;;;;;;;2.01;85.51;101495.88;5027651;28;20044;-65
2021/10/27 04:48:45;;;;;;;41.83;24.55;;;;;;;1.97;85.62;101498.69;5028359;28;20025;-66
2021/10/27 04:51:11;;;;;;;41.53;24.17;;;;;;;2.03;86.11;101503.75;5027991;28;20052;-65
2021/10/27 04:53:37;;;;;;;39.03;24.30;;;;;;;1.97;86.67;101496.03;5026295;28;20029;-66
2021/10/27 04:56:02;;;;;;;42.15;23.70;;;;;;;2.01;86.25;101497.66;5019250;28;20021;-66
2021/10/27 04:58:28;;;;;;;49.30;25.77;;;;;;;2.02;86.36;101510.84;5020946;28;20033;-66
2021/10/27 05:00:54;;;;;;;51.72;25.00;;;;;;;2.02;85.96;101515.25;5027810;28;20068;-66
2021/10/27 05:03:19;;;;;;;42.22;24.63;;;;;;;1.99;85.25;101505.66;5024113;28;20139;-66
2021/10/27 05:05:52;;;;;;;44.95;25.25;;;;;;;1.99;85.37;101516.22;5021915;28;20452;-66
2021/10/27 05:08:21;;;;;;;41.58;25.25;;;;;;;1.97;84.94;101518.03;5028059;28;20484;-66
2021/10/27 05:10:47;;;;;;;45.60;26.02;;;;;;;1.89;84.34;101517.44;5021806;28;20055;-66
2021/10/27 05:13:13;;;;;;;40.45;25.10;;;;;;;1.91;84.87;101530.63;5027808;28;20045;-66
2021/10/27 05:15:38;;;;;;;39.40;24.85;;;;;;;1.91;84.79;101544.69;5026622;28;20028;-66
2021/10/27 05:18:04;;;;;;;45.38;25.98;;;;;;;1.91;85.76;101551.78;5022382;28;20072;-66
2021/10/27 05:20:30;;;;;;;50.17;26.30;;;;;;;1.84;86.61;101543.19;5027880;28;20037;-65
2021/10/27 05:22:55;;;;;;;46.75;26.13;;;;;;;1.84;86.25;101550.28;5027806;28;20036;-65
2021/10/27 05:25:20;;;;;;;53.65;26.90;;;;;;;1.86;86.43;101559.00;5015799;28;20034;-65
2021/10/27 05:27:46;;;;;;;47.42;26.40;;;;;;;1.84;86.04;101553.75;5018100;28;20034;-65
2021/10/27 05:30:11;;;;;;;58.53;27.25;;;;;;;1.86;85.41;101567.81;5026092;28;20025;-65
2021/10/27 05:32:37;;;;;;;50.85;27.38;;;;;;;1.79;84.97;101557.47;5027784;28;20026;-65
2021/10/27 05:35:03;;;;;;;46.78;26.63;;;;;;;1.81;85.91;101571.53;5027423;28;20020;-65
2021/10/27 05:37:28;;;;;;;48.75;28.13;;;;;;;1.85;86.84;101576.66;5027773;28;20029;-66
2021/10/27 05:39:54;;;;;;;49.95;27.77;;;;;;;1.86;87.40;101588.97;5027534;28;20531;-65
2021/10/27 05:42:27;;;;;;;62.67;29.45;;;;;;;1.79;87.29;101587.44;5027718;28;20084;-66
2021/10/27 05:44:52;;;;;;;53.67;29.80;;;;;;;1.84;87.28;101595.22;5027643;28;20574;-66
2021/10/27 05:47:18;;;;;;;52.55;29.13;;;;;;;1.82;87.80;101586.47;5027632;28;20116;-65
2021/10/27 05:49:50;;;;;;;54.10;30.02;;;;;;;1.88;87.54;101588.91;5027545;28;20174;-65
2021/10/27 05:57:46;;;;;;;57.70;30.73;;;;;;;1.95;89.19;101599.25;5019625;28;20036;-65
2021/10/27 06:00:12;;;;;;;64.70;30.20;;;;;;;2.02;88.90;101606.09;5024609;28;20052;-65
2021/10/27 06:02:38;;;;;;;65.35;31.02;;;;;;;2.09;88.60;101612.03;5027091;28;20029;-66
2021/10/27 06:05:04;;;;;;;82.63;33.38;;;;;;;2.12;88.54;101623.38;5027380;28;20373;-66
2021/10/27 06:07:32;;;;;;;74.13;32.20;;;;;;;2.16;88.19;101611.78;5027540;28;20407;-65
2021/10/27 06:09:58;;;;;;;67.57;31.48;;;;;;;2.10;88.23;101611.13;5027611;28;20364;-65
2021/10/27 06:12:24;;;;;;;71.65;33.65;;;;;;;2.24;88.80;101622.13;5027404;28;20044;-65
2021/10/27 06:14:49;;;;;;;74.40;35.88;;;;;;;2.29;88.88;101642.22;5027283;28;20037;-65
2021/10/27 06:17:15;;;;;;;81.50;41.95;;;;;;;2.35;88.78;101649.06;5028738;28;20029;-65
2021/10/27 06:19:41;;;;;;;75.40;41.20;;;;;;;2.39;89.23;101650.72;5030568;28;20092;-67
2021/10/27 06:22:08;;;;;;;80.72;44.47;;;;;;;2.38;89.79;101640.19;5030774;28;20044;-66
2021/10/27 06:24:34;;;;;;;82.47;44.88;;;;;;;2.45;90.97;101652.31;5030760;28;20025;-66
2021/10/27 06:27:00;;;;;;;87.72;46.50;;;;;;;2.54;91.44;101662.59;5030899;28;20053;-66
2021/10/27 06:29:32;;;;;;;97.50;51.63;;;;;;;2.60;91.95;101655.28;5022971;28;20139;-66
2021/10/27 06:32:48;;;;;;;94.80;52.20;;;;;;;2.62;92.19;101661.41;5030635;28;20037;-66
2021/10/27 06:34:50;;;;;;;95.40;51.72;;;;;;;2.73;92.02;101658.38;5029916;28;20037;-66
2021/10/27 06:48:20;;;;;;;78.85;43.25;;;;;;;3.07;92.49;101667.78;5030089;28;20506;-64
2021/10/27 06:50:45;;;;;;;74.32;40.28;;;;;;;3.08;92.87;101656.25;5030237;28;20029;-65
2021/10/27 06:53:11;;;;;;;70.97;37.72;;;;;;;3.21;93.33;101669.91;5030662;28;20021;-64
2021/10/27 06:55:39;;;;;;;76.15;37.50;;;;;;;3.37;93.37;101677.25;5030028;28;20063;-64
2021/10/27 06:58:05;;;;;;;67.20;38.38;;;;;;;3.40;93.90;101663.88;5030323;28;20036;-64
2021/10/27 07:16:37;;;;;;;;;;;;;;;4.38;95.45;101676.78;5030461;28;20024;-65
2021/10/27 07:19:02;;;;;;;67.97;35.97;;;;;;;4.53;95.33;101683.25;5029725;28;20454;-64
2021/10/27 07:21:28;;;;;;;59.97;35.97;;;;;;;4.58;94.79;101668.00;5029487;28;20029;-64
2021/10/27 07:23:54;;;;;;;64.55;38.72;;;;;;;4.81;94.95;101677.66;5029657;28;20024;-64
2021/10/27 07:26:20;;;;;;;73.45;38.90;;;;;;;4.97;95.07;101674.28;5027965;28;20056;-70
2021/10/27 07:28:48;;;;;;;66.70;38.03;;;;;;;5.09;94.28;101667.56;5019087;28;20401;-70
2021/10/27 07:31:16;;;;;;;61.40;36.30;;;;;;;5.27;93.67;101672.06;5023709;28;20032;-70
2021/10/27 07:33:43;;;;;;;67.47;36.08;;;;;;;5.41;93.19;101674.94;5029849;28;20553;-70
2021/10/27 07:36:27;;;;;;;61.40;36.33;;;;;;;5.61;92.23;101677.59;5022077;28;20475;-69
2021/10/27 07:41:37;;;;;;;67.07;36.88;;;;;;;5.93;91.31;101645.06;5027258;28;20087;-69
2021/10/27 07:44:13;;;;;;;59.80;33.67;;;;;;;6.25;90.23;101660.31;5025096;28;20029;-70
2021/10/27 07:46:41;;;;;;;61.03;33.13;;;;;;;6.52;88.95;101678.47;5027203;28;20541;-70
2021/10/27 07:49:07;;;;;;;53.95;32.28;;;;;;;6.72;86.88;101678.38;5027303;28;20040;-71
2021/10/27 07:51:32;;;;;;;61.70;35.40;;;;;;;6.87;86.58;101679.41;5028582;28;20116;-71
2021/10/27 07:53:58;;;;;;;56.80;33.42;;;;;;;7.02;85.55;101681.25;5026458;28;20048;-70
2021/10/27 07:56:23;;;;;;;60.38;33.92;;;;;;;7.16;84.55;101678.72;5029446;28;20017;-71
2021/10/27 07:58:50;;;;;;;55.47;32.92;;;;;;;7.25;83.79;101669.41;5019218;28;20120;-71
2021/10/27 08:01:16;;;;;;;62.05;34.63;;;;;;;7.37;83.07;101664.28;5019798;28;20021;-71
2021/10/27 08:03:42;;;;;;;59.80;35.33;;;;;;;7.46;82.59;101668.25;5021270;28;20080;-71
2021/10/27 08:06:10;;;;;;;54.55;33.53;;;;;;;7.54;82.22;101658.88;5026723;28;20021;-70
2021/10/27 08:08:35;;;;;;;63.88;35.60;;;;;;;7.62;82.04;101663.81;5030540;28;20022;-71
2021/10/27 08:11:01;;;;;;;62.20;35.20;;;;;;;7.78;82.36;101680.72;5030117;28;20080;-71
2021/10/27 08:13:27;;;;;;;60.17;35.58;;;;;;;7.85;81.52;101664.28;5020238;28;20026;-70
2021/10/27 08:15:54;;;;;;;60.50;35.65;;;;;;;7.87;81.68;101654.34;5010216;28;20037;-70
2021/10/27 08:18:20;;;;;;;60.40;34.92;;;;;;;8.05;81.28;101673.84;5024292;28;20053;-70
2021/10/27 08:20:46;;;;;;;58.35;32.22;;;;;;;8.13;80.55;101668.94;5026570;28;20030;-71
2021/10/27 08:23:13;;;;;;;52.20;32.03;;;;;;;8.19;80.35;101668.59;5025116;28;20022;-71
2021/10/27 08:25:44;;;;;;;51.10;32.28;;;;;;;8.30;79.83;101652.84;5011870;28;20228;-71
2021/10/27 08:28:16;;;;;;;52.13;31.73;;;;;;;8.40;79.24;101668.28;5019799;28;20167;-71
2021/10/27 08:31:03;;;;;;;56.08;32.35;;;;;;;8.50;79.21;101671.28;5024350;28;20025;-69
2021/10/27 08:36:00;;;;;;;47.55;29.15;;;;;;;8.71;77.35;101664.69;5029457;28;20025;-69
2021/10/27 08:38:25;;;;;;;48.40;28.08;;;;;;;8.79;77.00;101659.72;5026597;28;20376;-69
2021/10/27 08:40:51;;;;;;;43.78;26.90;;;;;;;8.81;76.47;101647.16;5029283;28;20025;-71
2021/10/27 08:43:17;;;;;;;44.45;27.63;;;;;;;9.00;75.74;101670.03;5027517;28;20075;-69
2021/10/27 08:45:44;;;;;;;44.20;27.58;;;;;;;9.12;74.68;101668.41;5029341;28;20030;-69
2021/10/27 08:48:12;;;;;;;43.78;27.35;;;;;;;9.21;74.24;101673.22;5024045;28;20061;-69
2021/10/27 08:50:40;;;;;;;43.22;26.63;;;;;;;9.31;73.98;101677.06;5029264;28;20086;-70
2021/10/27 08:53:06;;;;;;;43.03;27.90;;;;;;;9.40;72.91;101675.63;5021335;28;20029;-70
2021/10/27 08:55:33;;;;;;;42.42;25.05;;;;;;;9.45;72.19;101660.16;5023579;28;20084;-70
2021/10/27 08:57:59;;;;;;;39.25;25.67;;;;;;;9.59;71.68;101669.06;5019229;28;20025;-70
2021/10/27 09:44:03;;;;;;;31.23;18.55;;;;;;;17.11;44.03;101650.69;5017926;28;20033;-69
2021/10/27 09:47:11;;;;;;;34.60;19.88;;;;;;;18.00;41.63;101636.63;5030008;28;20480;-69
2021/10/27 10:06:49;;;;;;;32.10;18.67;;;;;;;16.94;42.84;101624.31;5016970;28;20049;-70
2021/10/27 10:09:16;;;;;;;32.33;19.27;;;;;;;16.53;43.44;101621.88;5030540;28;20057;-70
2021/10/27 10:11:42;;;;;;;26.42;17.80;;;;;;;16.20;44.02;101613.22;5031513;28;20494;-69
2021/10/27 10:14:11;;;;;;;25.38;16.40;;;;;;;15.92;44.75;101611.31;5026364;28;20033;-69
2021/10/27 10:16:49;;;;;;;23.77;15.25;;;;;;;15.66;45.52;101611.78;5023792;28;20478;-69
2021/10/27 10:19:19;;;;;;;20.02;12.95;;;;;;;15.46;44.92;101619.94;5031480;28;20052;-69
2021/10/27 10:21:47;;;;;;;20.45;12.50;;;;;;;15.21;44.61;101604.09;5031471;28;20033;-69
2021/10/27 10:24:16;;;;;;;20.70;11.95;;;;;;;15.11;45.13;101620.25;5023769;28;20416;-68
2021/10/27 10:26:42;;;;;;;19.95;11.80;;;;;;;14.98;45.64;101619.59;5030776;28;20360;-69
2021/10/27 10:29:08;;;;;;;17.88;10.63;;;;;;;14.89;46.02;101614.09;5026758;28;20168;-69
2021/10/27 10:31:37;;;;;;;16.90;8.70;;;;;;;14.73;46.00;101601.06;5029614;28;20041;-69
2021/10/27 10:34:11;;;;;;;11.57;8.77;;;;;;;14.71;45.34;101613.84;5025599;28;20034;-68
2021/10/27 10:36:45;;;;;;;18.25;9.70;;;;;;;14.64;45.42;101604.53;5032116;28;20029;-68
2021/10/27 10:39:53;;;;;;;14.73;8.93;;;;;;;14.56;45.13;101603.47;5027754;28;20037;-68
2021/10/27 10:42:47;;;;;;;14.02;8.80;;;;;;;14.51;45.30;101603.00;5021737;28;20034;-69
2021/10/27 10:45:33;;;;;;;13.32;8.10;;;;;;;14.44;45.48;101599.13;5032735;28;20037;-69
2021/10/27 10:57:09;;;;;;;14.60;7.63;;;;;;;14.45;44.37;101588.16;5018931;28;20411;-69
2021/10/27 11:39:19;;;;;;;;;;;;;;;14.54;44.49;101573.06;5029765;28;20072;-69
2021/10/27 11:41:20;;;;;;;12.60;7.40;;;;;;;14.57;44.31;101576.34;5014333;28;19937;-69
2021/10/27 11:44:09;;;;;;;11.27;7.60;;;;;;;14.59;44.59;101568.97;5028634;28;20117;-70
2021/10/27 11:47:06;;;;;;;12.02;8.45;;;;;;;14.54;44.96;101559.56;5017590;28;20468;-70
2021/10/27 11:49:37;;;;;;;13.95;8.38;;;;;;;14.60;45.59;101564.41;5027544;28;20094;-69
2021/10/27 11:52:03;;;;;;;12.20;8.18;;;;;;;14.59;45.70;101557.31;5029463;28;20025;-69
2021/10/27 11:54:30;;;;;;;12.05;8.07;;;;;;;14.59;45.49;101558.19;5022675;28;20385;-70
2021/10/27 11:56:58;;;;;;;11.00;8.40;;;;;;;14.60;45.31;101549.06;5030078;28;20021;-70
2021/10/27 11:59:25;;;;;;;10.75;7.05;;;;;;;14.65;45.01;101548.69;5026921;28;20116;-70
2021/10/27 12:01:52;;;;;;;13.48;8.43;;;;;;;14.67;44.99;101552.97;5025324;28;20487;-69
2021/10/27 12:04:19;;;;;;;11.30;6.78;;;;;;;14.68;45.16;101546.59;5020606;28;20395;-69
2021/10/27 12:07:00;;;;;;;9.70;7.03;;;;;;;14.72;44.94;101550.75;5029011;28;20121;-69
2021/10/27 12:16:14;;;;;;;11.90;7.40;;;;;;;14.83;44.25;101534.47;5028737;28;20045;-69
2021/10/27 12:18:01;;;;;;;10.50;7.15;;;;;;;14.82;44.18;101523.78;5012694;28;20049;-68
2021/10/27 12:20:36;;;;;;;13.48;7.50;;;;;;;14.84;43.94;101521.81;5020351;28;20057;-69
2021/10/27 12:23:04;;;;;;;11.95;6.88;;;;;;;14.79;43.77;101511.41;5029296;28;20388;-68
2021/10/27 12:25:30;;;;;;;9.65;6.90;;;;;;;14.87;44.35;101526.97;5028606;28;20060;-70
2021/10/27 12:28:01;;;;;;;10.48;6.97;;;;;;;14.87;43.80;101529.66;5029065;28;20099;-70
2021/10/27 12:30:39;;;;;;;13.57;6.97;;;;;;;14.89;43.17;101522.25;5028478;28;20029;-64
2021/10/27 12:33:05;;;;;;;10.95;7.30;;;;;;;14.88;43.75;101515.16;5028479;28;20481;-64
2021/10/27 12:35:32;;;;;;;11.07;6.97;;;;;;;14.90;43.70;101522.13;5028195;28;20063;-70
2021/10/27 12:38:23;;;;;;;11.27;7.25;;;;;;;14.88;43.61;101515.16;5028812;28;20029;-69
2021/10/27 12:40:50;;;;;;;10.38;7.40;;;;;;;14.90;43.45;101511.31;5024952;28;20089;-62
2021/10/27 12:43:20;;;;;;;11.02;6.72;;;;;;;14.91;43.51;101514.88;5028463;28;20203;-62
2021/10/27 12:45:51;;;;;;;11.00;7.47;;;;;;;14.93;43.40;101502.94;5029815;28;20391;-69
2021/10/27 12:48:38;;;;;;;10.73;6.95;;;;;;;14.95;43.68;101510.91;5022007;28;20082;-68
2021/10/27 12:51:10;;;;;;;11.13;6.65;;;;;;;14.96;43.71;101516.19;5027349;28;20052;-63
2021/10/27 12:53:42;;;;;;;8.90;6.78;;;;;;;14.99;43.60;101507.81;5025746;28;20022;-63
2021/10/27 12:56:14;;;;;;;12.35;7.32;;;;;;;15.04;43.34;101499.31;5028140;28;20017;-63
2021/10/27 12:58:48;;;;;;;11.18;7.50;;;;;;;15.02;43.85;101504.84;5023240;28;20357;-62
2021/10/27 13:06:43;;;;;;;10.65;7.13;;;;;;;15.09;43.79;101500.63;5027840;28;20503;-63
2021/10/27 13:09:20;;;;;;;12.02;7.38;;;;;;;15.12;43.45;101488.72;5023735;28;20029;-63
2021/10/27 13:32:59;;;;;;;11.05;7.28;;;;;;;15.11;43.53;101497.78;5031932;28;20033;-63
2021/10/27 13:35:22;;;;;;;9.88;6.97;;;;;;;15.03;43.91;101471.44;5028891;28;20449;-64
2021/10/27 13:37:48;;;;;;;15.88;7.78;;;;;;;15.09;44.11;101491.69;5031926;28;20024;-63
2021/10/27 13:40:15;;;;;;;12.30;7.50;;;;;;;15.10;43.88;101486.13;5030055;28;20029;-64
2021/10/27 13:42:53;;;;;;;10.00;7.20;;;;;;;15.10;43.64;101493.38;5031200;28;20479;-64
2021/10/27 13:45:28;;;;;;;11.65;6.75;;;;;;;15.10;43.66;101488.84;5031757;28;20029;-63
2021/10/27 13:59:14;;;;;;;10.23;6.82;;;;;;;15.12;42.95;101486.84;5026549;28;20032;-63
2021/10/27 14:09:56;;;;;;;14.50;7.43;;;;;;;14.97;42.95;101474.69;5027218;28;20075;-64
2021/10/27 14:12:38;;;;;;;10.70;6.85;;;;;;;15.03;43.11;101476.00;5028564;28;20018;-64
2021/10/27 14:17:54;;;;;;;13.65;7.38;;;;;;;15.00;43.92;101485.22;5023111;28;20057;-70
2021/10/27 14:39:37;;;;;;;13.00;8.20;;;;;;;14.74;45.92;101480.38;5031224;28;20037;-69
2021/10/27 15:25:44;;;;;;;21.70;8.43;;;;;;;13.30;52.69;101505.16;5030482;28;20037;-69
2021/10/27 15:52:14;;;;;;;20.83;8.93;;;;;;;12.01;58.69;101526.09;5015802;28;20044;-68
2021/10/27 15:54:43;;;;;;;25.40;9.73;;;;;;;11.90;58.87;101531.38;5022137;28;20072;-68
2021/10/27 15:57:10;;;;;;;37.33;9.95;;;;;;;11.77;60.08;101525.22;5022394;28;20025;-67
2021/10/27 15:59:36;;;;;;;28.23;10.38;;;;;;;11.60;60.57;101516.66;5018914;28;20038;-68
2021/10/27 16:02:01;;;;;;;26.10;9.32;;;;;;;11.53;60.97;101541.28;5027002;28;20033;-68
2021/10/27 16:04:27;;;;;;;18.77;9.68;;;;;;;11.39;60.93;101525.28;5026916;28;20451;-69
2021/10/27 16:06:55;;;;;;;17.70;9.23;;;;;;;11.29;61.97;101523.38;5020071;28;20030;-68
2021/10/27 16:09:25;;;;;;;30.10;9.68;;;;;;;11.20;62.50;101521.34;5006184;28;20033;-68